sensor_id;sensor_type;location;lat;lon;timestamp;P1;durP1;ratioP1;P2;durP2;ratioP2
2610;SDS011;5612;51.134;17.058;2023-07-20T00:00:48;3.30;;;3.00;;
2610;SDS011;5612;51.134;17.058;2023-07-20T00:03:20;3.30;;;3.10;;
2610;SDS011;5612;51.134;17.058;2023-07-20T00:05:49;4.50;;;3.60;;
2610;SDS011;5612;51.134;17.058;2023-07-20T00:08:18;3.07;;;2.87;;
2610;SDS011;5612;51.134;17.058;2023-07-20T00:10:47;3.60;;;3.30;;
2610;SDS011;5612;51.134;17.058;2023-07-20T00:13:16;3.30;;;3.10;;
2610;SDS011;5612;51.134;17.058;2023-07-20T00:15:49;3.67;;;3.40;;
2610;SDS011;5612;51.134;17.058;2023-07-20T00:18:19;3.80;;;3.50;;
2610;SDS011;5612;51.134;17.058;2023-07-20T00:20:48;6.43;;;4.17;;
2610;SDS011;5612;51.134;17.058;2023-07-20T00:23:18;6.60;;;4.67;;
2610;SDS011;5612;51.134;17.058;2023-07-20T00:25:47;5.10;;;4.03;;
2610;SDS011;5612;51.134;17.058;2023-07-20T00:28:16;4.50;;;4.10;;
2610;SDS011;5612;51.134;17.058;2023-07-20T00:30:45;5.10;;;4.67;;
2610;SDS011;5612;51.134;17.058;2023-07-20T00:33:16;4.90;;;4.50;;
2610;SDS011;5612;51.134;17.058;2023-07-20T00:35:46;5.77;;;5.27;;
2610;SDS011;5612;51.134;17.058;2023-07-20T00:38:15;9.30;;;5.00;;
2610;SDS011;5612;51.134;17.058;2023-07-20T00:40:44;5.43;;;4.90;;
2610;SDS011;5612;51.134;17.058;2023-07-20T00:43:12;5.80;;;5.10;;
2610;SDS011;5612;51.134;17.058;2023-07-20T00:45:42;6.53;;;5.40;;
2610;SDS011;5612;51.134;17.058;2023-07-20T00:48:11;5.60;;;5.00;;
2610;SDS011;5612;51.134;17.058;2023-07-20T00:50:43;6.77;;;5.47;;
2610;SDS011;5612;51.134;17.058;2023-07-20T00:53:13;5.30;;;4.90;;
2610;SDS011;5612;51.134;17.058;2023-07-20T00:55:42;6.70;;;5.33;;
2610;SDS011;5612;51.134;17.058;2023-07-20T00:58:11;6.43;;;5.00;;
2610;SDS011;5612;51.134;17.058;2023-07-20T01:00:40;7.63;;;4.83;;
2610;SDS011;5612;51.134;17.058;2023-07-20T01:03:09;6.37;;;4.50;;
2610;SDS011;5612;51.134;17.058;2023-07-20T01:05:39;4.50;;;4.10;;
2610;SDS011;5612;51.134;17.058;2023-07-20T01:08:16;6.13;;;4.17;;
2610;SDS011;5612;51.134;17.058;2023-07-20T01:10:51;4.80;;;4.43;;
2610;SDS011;5612;51.134;17.058;2023-07-20T01:13:25;4.63;;;4.23;;
2610;SDS011;5612;51.134;17.058;2023-07-20T01:15:56;4.50;;;4.10;;
2610;SDS011;5612;51.134;17.058;2023-07-20T01:18:28;4.50;;;4.20;;
2610;SDS011;5612;51.134;17.058;2023-07-20T01:20:59;4.63;;;4.27;;
2610;SDS011;5612;51.134;17.058;2023-07-20T01:23:37;4.50;;;4.20;;
2610;SDS011;5612;51.134;17.058;2023-07-20T01:26:34;4.70;;;4.30;;
2610;SDS011;5612;51.134;17.058;2023-07-20T01:29:26;6.70;;;4.80;;
2610;SDS011;5612;51.134;17.058;2023-07-20T01:32:22;3.73;;;3.43;;
2610;SDS011;5612;51.134;17.058;2023-07-20T01:34:53;5.17;;;4.77;;
2610;SDS011;5612;51.134;17.058;2023-07-20T01:37:24;4.50;;;4.20;;
2610;SDS011;5612;51.134;17.058;2023-07-20T01:39:56;6.27;;;4.20;;
2610;SDS011;5612;51.134;17.058;2023-07-20T01:42:28;5.77;;;4.73;;
2610;SDS011;5612;51.134;17.058;2023-07-20T01:44:57;4.20;;;3.93;;
2610;SDS011;5612;51.134;17.058;2023-07-20T01:47:27;5.00;;;4.60;;
2610;SDS011;5612;51.134;17.058;2023-07-20T01:49:56;4.87;;;4.47;;
2610;SDS011;5612;51.134;17.058;2023-07-20T01:52:25;6.80;;;6.20;;
2610;SDS011;5612;51.134;17.058;2023-07-20T01:54:54;5.43;;;4.27;;
2610;SDS011;5612;51.134;17.058;2023-07-20T01:57:23;5.53;;;4.83;;
2610;SDS011;5612;51.134;17.058;2023-07-20T01:59:52;5.60;;;4.90;;
2610;SDS011;5612;51.134;17.058;2023-07-20T02:02:22;5.97;;;5.47;;
2610;SDS011;5612;51.134;17.058;2023-07-20T02:04:55;5.43;;;4.93;;
2610;SDS011;5612;51.134;17.058;2023-07-20T02:07:25;6.60;;;6.00;;
2610;SDS011;5612;51.134;17.058;2023-07-20T02:09:54;6.40;;;5.10;;
2610;SDS011;5612;51.134;17.058;2023-07-20T02:12:22;5.33;;;4.90;;
2610;SDS011;5612;51.134;17.058;2023-07-20T02:14:51;5.17;;;4.73;;
2610;SDS011;5612;51.134;17.058;2023-07-20T02:17:20;5.50;;;5.00;;
2610;SDS011;5612;51.134;17.058;2023-07-20T02:19:50;6.30;;;5.17;;
2610;SDS011;5612;51.134;17.058;2023-07-20T02:22:23;5.40;;;4.90;;
2610;SDS011;5612;51.134;17.058;2023-07-20T02:24:52;4.97;;;4.67;;
2610;SDS011;5612;51.134;17.058;2023-07-20T02:27:21;5.93;;;5.10;;
2610;SDS011;5612;51.134;17.058;2023-07-20T02:29:50;5.80;;;5.20;;
2610;SDS011;5612;51.134;17.058;2023-07-20T02:32:18;4.93;;;4.53;;
2610;SDS011;5612;51.134;17.058;2023-07-20T02:34:47;5.33;;;4.93;;
2610;SDS011;5612;51.134;17.058;2023-07-20T02:37:16;4.57;;;4.17;;
2610;SDS011;5612;51.134;17.058;2023-07-20T02:39:47;5.10;;;4.70;;
2610;SDS011;5612;51.134;17.058;2023-07-20T02:42:16;4.73;;;4.33;;
2610;SDS011;5612;51.134;17.058;2023-07-20T02:44:46;5.07;;;4.67;;
2610;SDS011;5612;51.134;17.058;2023-07-20T02:47:15;4.93;;;4.57;;
2610;SDS011;5612;51.134;17.058;2023-07-20T02:49:43;4.50;;;4.20;;
2610;SDS011;5612;51.134;17.058;2023-07-20T02:52:12;5.20;;;4.57;;
2610;SDS011;5612;51.134;17.058;2023-07-20T02:54:41;5.00;;;4.60;;
2610;SDS011;5612;51.134;17.058;2023-07-20T02:57:12;4.97;;;4.47;;
2610;SDS011;5612;51.134;17.058;2023-07-20T02:59:40;4.43;;;3.83;;
2610;SDS011;5612;51.134;17.058;2023-07-20T03:02:09;4.30;;;3.90;;
2610;SDS011;5612;51.134;17.058;2023-07-20T03:04:38;4.80;;;3.97;;
2610;SDS011;5612;51.134;17.058;2023-07-20T03:07:07;13.83;;;4.80;;
2610;SDS011;5612;51.134;17.058;2023-07-20T03:09:36;4.77;;;4.37;;
2610;SDS011;5612;51.134;17.058;2023-07-20T03:12:05;4.97;;;4.17;;
2610;SDS011;5612;51.134;17.058;2023-07-20T03:14:37;6.40;;;4.20;;
2610;SDS011;5612;51.134;17.058;2023-07-20T03:17:06;4.53;;;4.13;;
2610;SDS011;5612;51.134;17.058;2023-07-20T03:19:35;5.27;;;4.87;;
2610;SDS011;5612;51.134;17.058;2023-07-20T03:22:04;5.40;;;4.97;;
2610;SDS011;5612;51.134;17.058;2023-07-20T03:24:33;5.67;;;5.03;;
2610;SDS011;5612;51.134;17.058;2023-07-20T03:27:02;5.37;;;4.87;;
2610;SDS011;5612;51.134;17.058;2023-07-20T03:29:31;5.17;;;4.80;;
2610;SDS011;5612;51.134;17.058;2023-07-20T03:32:01;6.00;;;5.50;;
2610;SDS011;5612;51.134;17.058;2023-07-20T03:34:30;5.50;;;5.10;;
2610;SDS011;5612;51.134;17.058;2023-07-20T03:36:59;6.50;;;6.00;;
2610;SDS011;5612;51.134;17.058;2023-07-20T03:39:28;7.33;;;6.80;;
2610;SDS011;5612;51.134;17.058;2023-07-20T03:41:57;7.87;;;7.13;;
2610;SDS011;5612;51.134;17.058;2023-07-20T03:44:26;7.87;;;7.27;;
2610;SDS011;5612;51.134;17.058;2023-07-20T03:46:56;6.60;;;6.10;;
2610;SDS011;5612;51.134;17.058;2023-07-20T03:49:26;7.33;;;6.63;;
2610;SDS011;5612;51.134;17.058;2023-07-20T03:51:55;7.07;;;6.60;;
2610;SDS011;5612;51.134;17.058;2023-07-20T03:54:24;7.87;;;7.17;;
2610;SDS011;5612;51.134;17.058;2023-07-20T03:56:53;6.90;;;6.30;;
2610;SDS011;5612;51.134;17.058;2023-07-20T03:59:22;7.07;;;6.43;;
2610;SDS011;5612;51.134;17.058;2023-07-20T04:01:51;7.40;;;6.70;;
2610;SDS011;5612;51.134;17.058;2023-07-20T04:04:19;8.20;;;7.50;;
2610;SDS011;5612;51.134;17.058;2023-07-20T04:06:50;6.70;;;5.60;;
2610;SDS011;5612;51.134;17.058;2023-07-20T04:09:19;8.63;;;6.10;;
2610;SDS011;5612;51.134;17.058;2023-07-20T04:11:48;11.03;;;5.90;;
2610;SDS011;5612;51.134;17.058;2023-07-20T04:14:16;7.23;;;6.63;;
2610;SDS011;5612;51.134;17.058;2023-07-20T04:16:46;7.00;;;5.53;;
2610;SDS011;5612;51.134;17.058;2023-07-20T04:19:15;8.27;;;6.07;;
2610;SDS011;5612;51.134;17.058;2023-07-20T04:21:44;7.20;;;6.60;;
2610;SDS011;5612;51.134;17.058;2023-07-20T04:24:15;6.10;;;5.70;;
2610;SDS011;5612;51.134;17.058;2023-07-20T04:26:43;6.27;;;5.77;;
2610;SDS011;5612;51.134;17.058;2023-07-20T04:29:12;6.83;;;6.23;;
2610;SDS011;5612;51.134;17.058;2023-07-20T04:31:41;6.17;;;5.67;;
2610;SDS011;5612;51.134;17.058;2023-07-20T04:34:10;6.17;;;5.50;;
2610;SDS011;5612;51.134;17.058;2023-07-20T04:36:39;7.00;;;6.40;;
2610;SDS011;5612;51.134;17.058;2023-07-20T04:39:09;6.20;;;5.60;;
2610;SDS011;5612;51.134;17.058;2023-07-20T04:41:57;6.60;;;6.10;;
2610;SDS011;5612;51.134;17.058;2023-07-20T04:44:26;6.30;;;5.63;;
2610;SDS011;5612;51.134;17.058;2023-07-20T04:46:54;6.83;;;5.53;;
2610;SDS011;5612;51.134;17.058;2023-07-20T04:49:24;5.90;;;5.10;;
2610;SDS011;5612;51.134;17.058;2023-07-20T04:51:52;5.50;;;5.10;;
2610;SDS011;5612;51.134;17.058;2023-07-20T04:54:21;6.43;;;5.67;;
2610;SDS011;5612;51.134;17.058;2023-07-20T04:56:51;6.07;;;5.57;;
2610;SDS011;5612;51.134;17.058;2023-07-20T04:59:21;5.47;;;4.97;;
2610;SDS011;5612;51.134;17.058;2023-07-20T05:01:50;5.57;;;5.10;;
2610;SDS011;5612;51.134;17.058;2023-07-20T05:04:19;6.47;;;5.80;;
2610;SDS011;5612;51.134;17.058;2023-07-20T05:06:48;7.83;;;6.00;;
2610;SDS011;5612;51.134;17.058;2023-07-20T05:09:17;5.90;;;5.30;;
2610;SDS011;5612;51.134;17.058;2023-07-20T05:11:45;5.77;;;5.33;;
2610;SDS011;5612;51.134;17.058;2023-07-20T05:14:16;5.90;;;5.40;;
2610;SDS011;5612;51.134;17.058;2023-07-20T05:16:46;6.30;;;5.80;;
2610;SDS011;5612;51.134;17.058;2023-07-20T05:19:14;9.30;;;5.37;;
2610;SDS011;5612;51.134;17.058;2023-07-20T05:21:43;6.20;;;5.50;;
2610;SDS011;5612;51.134;17.058;2023-07-20T05:24:12;7.30;;;6.60;;
2610;SDS011;5612;51.134;17.058;2023-07-20T05:26:41;6.07;;;5.47;;
2610;SDS011;5612;51.134;17.058;2023-07-20T05:29:09;8.60;;;6.40;;
2610;SDS011;5612;51.134;17.058;2023-07-20T05:31:38;5.93;;;5.53;;
2610;SDS011;5612;51.134;17.058;2023-07-20T05:34:08;8.00;;;7.20;;
2610;SDS011;5612;51.134;17.058;2023-07-20T05:36:37;7.47;;;6.97;;
2610;SDS011;5612;51.134;17.058;2023-07-20T05:39:06;7.90;;;7.30;;
2610;SDS011;5612;51.134;17.058;2023-07-20T05:41:34;8.80;;;8.00;;
2610;SDS011;5612;51.134;17.058;2023-07-20T05:44:03;10.10;;;8.53;;
2610;SDS011;5612;51.134;17.058;2023-07-20T05:46:32;9.53;;;8.73;;
2610;SDS011;5612;51.134;17.058;2023-07-20T05:49:22;8.70;;;7.87;;
2610;SDS011;5612;51.134;17.058;2023-07-20T05:51:50;10.07;;;8.10;;
2610;SDS011;5612;51.134;17.058;2023-07-20T05:54:19;8.43;;;7.80;;
2610;SDS011;5612;51.134;17.058;2023-07-20T05:56:48;7.80;;;7.13;;
2610;SDS011;5612;51.134;17.058;2023-07-20T05:59:16;11.00;;;8.83;;
2610;SDS011;5612;51.134;17.058;2023-07-20T06:01:46;9.40;;;8.27;;
2610;SDS011;5612;51.134;17.058;2023-07-20T06:04:15;7.60;;;6.83;;
2610;SDS011;5612;51.134;17.058;2023-07-20T06:06:46;7.60;;;6.90;;
2610;SDS011;5612;51.134;17.058;2023-07-20T06:09:14;9.67;;;6.50;;
2610;SDS011;5612;51.134;17.058;2023-07-20T06:11:43;8.50;;;7.53;;
2610;SDS011;5612;51.134;17.058;2023-07-20T06:14:12;7.57;;;6.97;;
2610;SDS011;5612;51.134;17.058;2023-07-20T06:16:41;6.80;;;6.30;;
2610;SDS011;5612;51.134;17.058;2023-07-20T06:19:10;6.73;;;6.23;;
2610;SDS011;5612;51.134;17.058;2023-07-20T06:21:39;7.17;;;6.60;;
2610;SDS011;5612;51.134;17.058;2023-07-20T06:24:10;6.73;;;6.23;;
2610;SDS011;5612;51.134;17.058;2023-07-20T06:26:39;8.03;;;5.13;;
2610;SDS011;5612;51.134;17.058;2023-07-20T06:29:08;6.80;;;5.80;;
2610;SDS011;5612;51.134;17.058;2023-07-20T06:31:37;6.03;;;5.37;;
2610;SDS011;5612;51.134;17.058;2023-07-20T06:34:06;6.50;;;5.80;;
2610;SDS011;5612;51.134;17.058;2023-07-20T06:36:35;6.73;;;5.27;;
2610;SDS011;5612;51.134;17.058;2023-07-20T06:39:04;7.10;;;5.87;;
2610;SDS011;5612;51.134;17.058;2023-07-20T06:41:37;6.47;;;5.90;;
2610;SDS011;5612;51.134;17.058;2023-07-20T06:44:08;6.23;;;5.73;;
2610;SDS011;5612;51.134;17.058;2023-07-20T06:46:37;5.70;;;5.10;;
2610;SDS011;5612;51.134;17.058;2023-07-20T06:49:06;5.53;;;4.83;;
2610;SDS011;5612;51.134;17.058;2023-07-20T06:51:38;6.33;;;5.60;;
2610;SDS011;5612;51.134;17.058;2023-07-20T06:54:07;5.07;;;4.77;;
2610;SDS011;5612;51.134;17.058;2023-07-20T06:56:37;5.67;;;4.93;;
2610;SDS011;5612;51.134;17.058;2023-07-20T06:59:12;5.50;;;5.20;;
2610;SDS011;5612;51.134;17.058;2023-07-20T07:01:40;9.43;;;6.70;;
2610;SDS011;5612;51.134;17.058;2023-07-20T07:04:09;4.60;;;4.20;;
2610;SDS011;5612;51.134;17.058;2023-07-20T07:06:38;5.03;;;4.60;;
2610;SDS011;5612;51.134;17.058;2023-07-20T07:09:07;5.57;;;5.07;;
2610;SDS011;5612;51.134;17.058;2023-07-20T07:11:38;6.50;;;4.93;;
2610;SDS011;5612;51.134;17.058;2023-07-20T07:14:06;5.03;;;4.63;;
2610;SDS011;5612;51.134;17.058;2023-07-20T07:16:35;5.57;;;5.00;;
2610;SDS011;5612;51.134;17.058;2023-07-20T07:19:05;5.40;;;4.90;;
2610;SDS011;5612;51.134;17.058;2023-07-20T07:21:34;5.63;;;5.23;;
2610;SDS011;5612;51.134;17.058;2023-07-20T07:24:03;4.93;;;4.53;;
2610;SDS011;5612;51.134;17.058;2023-07-20T07:26:33;4.40;;;4.10;;
2610;SDS011;5612;51.134;17.058;2023-07-20T07:29:03;4.73;;;4.33;;
2610;SDS011;5612;51.134;17.058;2023-07-20T07:31:33;4.33;;;4.03;;
2610;SDS011;5612;51.134;17.058;2023-07-20T07:34:03;4.80;;;4.40;;
2610;SDS011;5612;51.134;17.058;2023-07-20T07:36:32;4.93;;;4.50;;
2610;SDS011;5612;51.134;17.058;2023-07-20T07:39:01;4.03;;;3.73;;
2610;SDS011;5612;51.134;17.058;2023-07-20T07:41:50;4.83;;;4.40;;
2610;SDS011;5612;51.134;17.058;2023-07-20T07:44:20;4.50;;;4.10;;
2610;SDS011;5612;51.134;17.058;2023-07-20T07:46:49;4.60;;;4.20;;
2610;SDS011;5612;51.134;17.058;2023-07-20T07:49:18;4.20;;;3.90;;
2610;SDS011;5612;51.134;17.058;2023-07-20T07:51:47;4.77;;;4.33;;
2610;SDS011;5612;51.134;17.058;2023-07-20T07:54:16;4.17;;;3.60;;
2610;SDS011;5612;51.134;17.058;2023-07-20T07:56:45;4.10;;;3.80;;
2610;SDS011;5612;51.134;17.058;2023-07-20T07:59:13;4.73;;;4.43;;
2610;SDS011;5612;51.134;17.058;2023-07-20T08:01:44;5.17;;;4.60;;
2610;SDS011;5612;51.134;17.058;2023-07-20T08:04:12;4.17;;;3.90;;
2610;SDS011;5612;51.134;17.058;2023-07-20T08:06:41;4.57;;;4.17;;
2610;SDS011;5612;51.134;17.058;2023-07-20T08:09:10;8.00;;;4.70;;
2610;SDS011;5612;51.134;17.058;2023-07-20T08:11:39;4.27;;;3.87;;
2610;SDS011;5612;51.134;17.058;2023-07-20T08:14:08;4.60;;;4.30;;
2610;SDS011;5612;51.134;17.058;2023-07-20T08:16:36;3.40;;;3.10;;
2610;SDS011;5612;51.134;17.058;2023-07-20T08:19:07;3.73;;;3.53;;
2610;SDS011;5612;51.134;17.058;2023-07-20T08:21:36;3.27;;;2.97;;
2610;SDS011;5612;51.134;17.058;2023-07-20T08:24:05;3.47;;;3.10;;
2610;SDS011;5612;51.134;17.058;2023-07-20T08:26:34;2.90;;;2.60;;
2610;SDS011;5612;51.134;17.058;2023-07-20T08:29:03;2.93;;;2.73;;
2610;SDS011;5612;51.134;17.058;2023-07-20T08:31:32;3.30;;;3.03;;
2610;SDS011;5612;51.134;17.058;2023-07-20T08:34:00;2.57;;;2.47;;
2610;SDS011;5612;51.134;17.058;2023-07-20T08:36:50;2.87;;;2.57;;
2610;SDS011;5612;51.134;17.058;2023-07-20T08:39:19;2.33;;;2.13;;
2610;SDS011;5612;51.134;17.058;2023-07-20T08:41:49;2.10;;;2.00;;
2610;SDS011;5612;51.134;17.058;2023-07-20T08:44:18;2.10;;;1.90;;
2610;SDS011;5612;51.134;17.058;2023-07-20T08:46:47;2.20;;;2.10;;
2610;SDS011;5612;51.134;17.058;2023-07-20T08:49:17;2.13;;;2.03;;
2610;SDS011;5612;51.134;17.058;2023-07-20T08:51:46;2.27;;;2.13;;
2610;SDS011;5612;51.134;17.058;2023-07-20T08:54:18;2.03;;;1.93;;
2610;SDS011;5612;51.134;17.058;2023-07-20T08:56:47;2.73;;;2.40;;
2610;SDS011;5612;51.134;17.058;2023-07-20T08:59:17;2.33;;;1.77;;
2610;SDS011;5612;51.134;17.058;2023-07-20T09:01:46;3.90;;;1.93;;
2610;SDS011;5612;51.134;17.058;2023-07-20T09:04:15;1.90;;;1.73;;
2610;SDS011;5612;51.134;17.058;2023-07-20T09:06:44;1.77;;;1.67;;
2610;SDS011;5612;51.134;17.058;2023-07-20T09:09:13;1.87;;;1.77;;
2610;SDS011;5612;51.134;17.058;2023-07-20T09:11:44;1.87;;;1.67;;
2610;SDS011;5612;51.134;17.058;2023-07-20T09:14:15;2.57;;;1.87;;
2610;SDS011;5612;51.134;17.058;2023-07-20T09:16:48;3.40;;;2.30;;
2610;SDS011;5612;51.134;17.058;2023-07-20T09:19:18;1.97;;;1.87;;
2610;SDS011;5612;51.134;17.058;2023-07-20T09:21:48;2.50;;;2.30;;
2610;SDS011;5612;51.134;17.058;2023-07-20T09:24:18;1.93;;;1.83;;
2610;SDS011;5612;51.134;17.058;2023-07-20T09:26:50;4.20;;;2.00;;
2610;SDS011;5612;51.134;17.058;2023-07-20T09:29:21;2.87;;;2.70;;
2610;SDS011;5612;51.134;17.058;2023-07-20T09:31:59;2.33;;;2.13;;
2610;SDS011;5612;51.134;17.058;2023-07-20T09:34:28;2.07;;;1.97;;
2610;SDS011;5612;51.134;17.058;2023-07-20T09:37:01;2.20;;;2.10;;
2610;SDS011;5612;51.134;17.058;2023-07-20T09:39:31;2.20;;;2.10;;
2610;SDS011;5612;51.134;17.058;2023-07-20T09:42:02;1.70;;;1.60;;
2610;SDS011;5612;51.134;17.058;2023-07-20T09:44:34;1.58;;;1.48;;
2610;SDS011;5612;51.134;17.058;2023-07-20T09:47:06;1.75;;;1.65;;
2610;SDS011;5612;51.134;17.058;2023-07-20T09:49:38;2.38;;;2.03;;
2610;SDS011;5612;51.134;17.058;2023-07-20T09:52:11;1.45;;;1.35;;
2610;SDS011;5612;51.134;17.058;2023-07-20T09:55:02;2.23;;;1.80;;
2610;SDS011;5612;51.134;17.058;2023-07-20T09:57:33;1.37;;;1.37;;
2610;SDS011;5612;51.134;17.058;2023-07-20T10:00:03;1.67;;;1.58;;
2610;SDS011;5612;51.134;17.058;2023-07-20T10:02:42;1.60;;;1.50;;
2610;SDS011;5612;51.134;17.058;2023-07-20T10:05:12;2.20;;;1.50;;
2610;SDS011;5612;51.134;17.058;2023-07-20T10:07:43;1.50;;;1.50;;
2610;SDS011;5612;51.134;17.058;2023-07-20T10:10:15;1.33;;;1.23;;
2610;SDS011;5612;51.134;17.058;2023-07-20T10:12:47;1.58;;;1.48;;
2610;SDS011;5612;51.134;17.058;2023-07-20T10:15:20;1.25;;;1.25;;
2610;SDS011;5612;51.134;17.058;2023-07-20T10:17:55;1.83;;;1.73;;
2610;SDS011;5612;51.134;17.058;2023-07-20T10:20:32;1.73;;;1.63;;
2610;SDS011;5612;51.134;17.058;2023-07-20T10:23:03;1.20;;;1.10;;
2610;SDS011;5612;51.134;17.058;2023-07-20T10:25:33;1.02;;;1.00;;
2610;SDS011;5612;51.134;17.058;2023-07-20T10:28:05;1.02;;;1.02;;
2610;SDS011;5612;51.134;17.058;2023-07-20T10:30:34;1.40;;;1.30;;
2610;SDS011;5612;51.134;17.058;2023-07-20T10:33:04;1.52;;;1.42;;
2610;SDS011;5612;51.134;17.058;2023-07-20T10:35:50;1.23;;;1.13;;
2610;SDS011;5612;51.134;17.058;2023-07-20T10:38:19;7.07;;;6.68;;
2610;SDS011;5612;51.134;17.058;2023-07-20T10:40:53;1.55;;;1.30;;
2610;SDS011;5612;51.134;17.058;2023-07-20T10:43:24;1.13;;;1.13;;
2610;SDS011;5612;51.134;17.058;2023-07-20T10:45:54;1.38;;;1.35;;
2610;SDS011;5612;51.134;17.058;2023-07-20T10:48:23;1.30;;;1.30;;
2610;SDS011;5612;51.134;17.058;2023-07-20T10:51:13;1.70;;;1.25;;
2610;SDS011;5612;51.134;17.058;2023-07-20T10:53:48;1.30;;;1.30;;
2610;SDS011;5612;51.134;17.058;2023-07-20T10:56:19;1.00;;;1.00;;
2610;SDS011;5612;51.134;17.058;2023-07-20T10:58:51;1.40;;;1.30;;
2610;SDS011;5612;51.134;17.058;2023-07-20T11:01:27;1.40;;;1.30;;
2610;SDS011;5612;51.134;17.058;2023-07-20T11:03:59;2.97;;;0.90;;
2610;SDS011;5612;51.134;17.058;2023-07-20T11:06:31;4.50;;;1.15;;
2610;SDS011;5612;51.134;17.058;2023-07-20T11:09:05;1.20;;;1.17;;
2610;SDS011;5612;51.134;17.058;2023-07-20T11:11:38;1.20;;;1.20;;
2610;SDS011;5612;51.134;17.058;2023-07-20T11:14:10;1.88;;;1.08;;
2610;SDS011;5612;51.134;17.058;2023-07-20T11:16:49;1.35;;;1.25;;
2610;SDS011;5612;51.134;17.058;2023-07-20T11:19:19;1.00;;;1.00;;
2610;SDS011;5612;51.134;17.058;2023-07-20T11:21:53;1.30;;;1.00;;
2610;SDS011;5612;51.134;17.058;2023-07-20T11:24:29;2.08;;;1.90;;
2610;SDS011;5612;51.134;17.058;2023-07-20T11:26:59;4.18;;;1.60;;
2610;SDS011;5612;51.134;17.058;2023-07-20T11:29:30;1.98;;;1.75;;
2610;SDS011;5612;51.134;17.058;2023-07-20T11:32:00;1.85;;;1.75;;
2610;SDS011;5612;51.134;17.058;2023-07-20T11:34:31;2.53;;;2.10;;
2610;SDS011;5612;51.134;17.058;2023-07-20T11:37:02;2.27;;;1.83;;
2610;SDS011;5612;51.134;17.058;2023-07-20T11:39:34;1.23;;;1.13;;
2610;SDS011;5612;51.134;17.058;2023-07-20T11:42:03;1.43;;;1.33;;
2610;SDS011;5612;51.134;17.058;2023-07-20T11:44:34;1.80;;;1.70;;
2610;SDS011;5612;51.134;17.058;2023-07-20T11:47:03;2.20;;;2.00;;
2610;SDS011;5612;51.134;17.058;2023-07-20T11:49:36;2.40;;;1.40;;
2610;SDS011;5612;51.134;17.058;2023-07-20T11:52:06;1.67;;;1.67;;
2610;SDS011;5612;51.134;17.058;2023-07-20T11:54:36;2.23;;;2.13;;
2610;SDS011;5612;51.134;17.058;2023-07-20T11:57:15;2.60;;;2.40;;
2610;SDS011;5612;51.134;17.058;2023-07-20T11:59:53;2.67;;;2.57;;
2610;SDS011;5612;51.134;17.058;2023-07-20T12:02:26;3.03;;;2.83;;
2610;SDS011;5612;51.134;17.058;2023-07-20T12:04:56;2.93;;;2.83;;
2610;SDS011;5612;51.134;17.058;2023-07-20T12:07:25;3.67;;;3.37;;
2610;SDS011;5612;51.134;17.058;2023-07-20T12:10:05;3.37;;;3.17;;
2610;SDS011;5612;51.134;17.058;2023-07-20T12:12:37;2.73;;;2.60;;
2610;SDS011;5612;51.134;17.058;2023-07-20T12:15:16;3.20;;;3.10;;
2610;SDS011;5612;51.134;17.058;2023-07-20T12:17:49;2.83;;;2.73;;
2610;SDS011;5612;51.134;17.058;2023-07-20T12:20:26;2.50;;;2.37;;
2610;SDS011;5612;51.134;17.058;2023-07-20T12:22:56;2.93;;;2.67;;
2610;SDS011;5612;51.134;17.058;2023-07-20T12:25:39;2.27;;;2.17;;
2610;SDS011;5612;51.134;17.058;2023-07-20T12:28:10;2.70;;;2.60;;
2610;SDS011;5612;51.134;17.058;2023-07-20T12:30:41;2.90;;;2.80;;
2610;SDS011;5612;51.134;17.058;2023-07-20T12:33:11;2.60;;;2.50;;
2610;SDS011;5612;51.134;17.058;2023-07-20T12:35:42;2.27;;;2.07;;
2610;SDS011;5612;51.134;17.058;2023-07-20T12:38:11;2.27;;;2.07;;
2610;SDS011;5612;51.134;17.058;2023-07-20T12:40:40;2.30;;;2.10;;
2610;SDS011;5612;51.134;17.058;2023-07-20T12:43:09;2.00;;;1.90;;
2610;SDS011;5612;51.134;17.058;2023-07-20T12:45:38;2.17;;;1.97;;
2610;SDS011;5612;51.134;17.058;2023-07-20T12:48:08;2.00;;;1.90;;
2610;SDS011;5612;51.134;17.058;2023-07-20T12:50:37;2.83;;;2.63;;
2610;SDS011;5612;51.134;17.058;2023-07-20T12:53:06;2.10;;;2.00;;
2610;SDS011;5612;51.134;17.058;2023-07-20T12:55:35;2.20;;;2.10;;
2610;SDS011;5612;51.134;17.058;2023-07-20T12:58:05;1.93;;;1.90;;
2610;SDS011;5612;51.134;17.058;2023-07-20T13:00:35;2.00;;;1.90;;
2610;SDS011;5612;51.134;17.058;2023-07-20T13:03:04;1.60;;;1.50;;
2610;SDS011;5612;51.134;17.058;2023-07-20T13:05:37;1.50;;;1.40;;
2610;SDS011;5612;51.134;17.058;2023-07-20T13:08:09;1.77;;;1.67;;
2610;SDS011;5612;51.134;17.058;2023-07-20T13:10:41;1.60;;;1.50;;
2610;SDS011;5612;51.134;17.058;2023-07-20T13:13:11;1.23;;;1.23;;
2610;SDS011;5612;51.134;17.058;2023-07-20T13:15:43;1.17;;;1.17;;
2610;SDS011;5612;51.134;17.058;2023-07-20T13:18:13;1.63;;;1.25;;
2610;SDS011;5612;51.134;17.058;2023-07-20T13:20:43;1.50;;;1.50;;
2610;SDS011;5612;51.134;17.058;2023-07-20T13:23:12;1.15;;;1.15;;
2610;SDS011;5612;51.134;17.058;2023-07-20T13:25:40;1.92;;;1.70;;
2610;SDS011;5612;51.134;17.058;2023-07-20T13:28:10;1.30;;;1.30;;
2610;SDS011;5612;51.134;17.058;2023-07-20T13:30:39;1.70;;;1.60;;
2610;SDS011;5612;51.134;17.058;2023-07-20T13:33:08;1.85;;;1.60;;
2610;SDS011;5612;51.134;17.058;2023-07-20T13:35:45;1.67;;;1.30;;
2610;SDS011;5612;51.134;17.058;2023-07-20T13:38:17;1.33;;;1.33;;
2610;SDS011;5612;51.134;17.058;2023-07-20T13:40:48;1.55;;;1.45;;
2610;SDS011;5612;51.134;17.058;2023-07-20T13:43:17;1.25;;;1.20;;
2610;SDS011;5612;51.134;17.058;2023-07-20T13:45:45;1.02;;;1.02;;
2610;SDS011;5612;51.134;17.058;2023-07-20T13:48:15;1.42;;;1.00;;
2610;SDS011;5612;51.134;17.058;2023-07-20T13:50:51;1.20;;;1.20;;
2610;SDS011;5612;51.134;17.058;2023-07-20T13:53:23;1.35;;;0.93;;
2610;SDS011;5612;51.134;17.058;2023-07-20T13:55:57;1.55;;;1.45;;
2610;SDS011;5612;51.134;17.058;2023-07-20T13:58:28;1.17;;;1.17;;
2610;SDS011;5612;51.134;17.058;2023-07-20T14:00:57;1.20;;;1.20;;
2610;SDS011;5612;51.134;17.058;2023-07-20T14:03:27;1.30;;;1.23;;
2610;SDS011;5612;51.134;17.058;2023-07-20T14:05:58;1.50;;;1.50;;
2610;SDS011;5612;51.134;17.058;2023-07-20T14:08:29;2.15;;;1.75;;
2610;SDS011;5612;51.134;17.058;2023-07-20T14:10:58;1.80;;;1.70;;
2610;SDS011;5612;51.134;17.058;2023-07-20T14:13:30;1.60;;;1.60;;
2610;SDS011;5612;51.134;17.058;2023-07-20T14:16:12;1.80;;;1.70;;
2610;SDS011;5612;51.134;17.058;2023-07-20T14:18:41;1.45;;;1.38;;
2610;SDS011;5612;51.134;17.058;2023-07-20T14:21:17;1.42;;;1.33;;
2610;SDS011;5612;51.134;17.058;2023-07-20T14:23:48;1.20;;;1.20;;
2610;SDS011;5612;51.134;17.058;2023-07-20T14:26:20;1.70;;;1.60;;
2610;SDS011;5612;51.134;17.058;2023-07-20T14:28:49;1.40;;;1.40;;
2610;SDS011;5612;51.134;17.058;2023-07-20T14:31:18;1.63;;;1.63;;
2610;SDS011;5612;51.134;17.058;2023-07-20T14:33:47;2.08;;;1.95;;
2610;SDS011;5612;51.134;17.058;2023-07-20T14:36:19;1.75;;;1.65;;
2610;SDS011;5612;51.134;17.058;2023-07-20T14:38:52;1.92;;;1.83;;
2610;SDS011;5612;51.134;17.058;2023-07-20T14:41:21;1.37;;;1.37;;
2610;SDS011;5612;51.134;17.058;2023-07-20T14:43:50;1.50;;;1.40;;
2610;SDS011;5612;51.134;17.058;2023-07-20T14:46:18;1.40;;;1.30;;
2610;SDS011;5612;51.134;17.058;2023-07-20T14:48:47;2.30;;;1.67;;
2610;SDS011;5612;51.134;17.058;2023-07-20T14:51:20;1.70;;;1.60;;
2610;SDS011;5612;51.134;17.058;2023-07-20T14:53:48;1.80;;;1.70;;
2610;SDS011;5612;51.134;17.058;2023-07-20T14:56:17;2.00;;;1.90;;
2610;SDS011;5612;51.134;17.058;2023-07-20T14:58:46;1.97;;;1.87;;
2610;SDS011;5612;51.134;17.058;2023-07-20T15:01:15;1.77;;;1.67;;
2610;SDS011;5612;51.134;17.058;2023-07-20T15:03:44;1.40;;;1.40;;
2610;SDS011;5612;51.134;17.058;2023-07-20T15:06:13;2.27;;;1.97;;
2610;SDS011;5612;51.134;17.058;2023-07-20T15:08:43;2.10;;;2.00;;
2610;SDS011;5612;51.134;17.058;2023-07-20T15:11:12;1.87;;;1.77;;
2610;SDS011;5612;51.134;17.058;2023-07-20T15:13:41;2.47;;;1.97;;
2610;SDS011;5612;51.134;17.058;2023-07-20T15:16:10;1.70;;;1.70;;
2610;SDS011;5612;51.134;17.058;2023-07-20T15:18:39;1.40;;;1.40;;
2610;SDS011;5612;51.134;17.058;2023-07-20T15:21:14;1.73;;;1.63;;